Time;durP1;ratioP1;P1;durP2;ratioP2;P2;SDS_P1;SDS_P2;PMS_P1;PMS_P2;Temp;Humidity;BMP_temperature;BMP_pressure;BME280_temperature;BME280_humidity;BME280_pressure;Samples;Min_cycle;Max_cycle;Signal;HPM_P1;HPM_P2
2022/08/25 00:01:15;;;;;;;4.72;2.35;;;;;;;19.45;100.00;98705.06;15274030;19;20011;-76
2022/08/25 00:06:23;;;;;;;5.68;2.38;;;;;;;19.42;100.00;98697.28;15276507;19;20042;-76
2022/08/25 00:11:31;;;;;;;5.00;2.50;;;;;;;19.37;100.00;98700.66;15279419;19;20018;-75
2022/08/25 00:16:36;;;;;;;6.82;2.70;;;;;;;19.30;100.00;98700.66;15282198;19;20050;-76
2022/08/25 00:21:45;;;;;;;7.60;2.72;;;;;;;19.26;100.00;98704.84;15281788;19;20034;-76
2022/08/25 00:26:52;;;;;;;3.70;2.70;;;;;;;19.21;100.00;98701.94;15278553;19;20341;-76
2022/08/25 00:31:58;;;;;;;4.63;2.60;;;;;;;19.17;100.00;98711.56;15274268;19;20006;-76
2022/08/25 00:37:08;;;;;;;6.05;2.90;;;;;;;19.16;100.00;98709.91;15281060;19;20034;-75
2022/08/25 00:42:13;;;;;;;6.28;4.15;;;;;;;19.07;100.00;98707.38;15278524;19;20053;-75
2022/08/25 00:47:19;;;;;;;5.57;3.95;;;;;;;19.00;100.00;98702.97;15279901;19;20023;-75
2022/08/25 00:52:31;;;;;;;4.82;3.50;;;;;;;19.02;100.00;98709.06;15278810;19;20038;-75
2022/08/25 00:57:39;;;;;;;4.38;2.97;;;;;;;19.00;100.00;98706.53;15276150;19;20010;-75
2022/08/25 01:02:44;;;;;;;6.75;3.47;;;;;;;18.98;100.00;98697.72;15268502;19;20010;-75
2022/08/25 01:07:53;;;;;;;5.05;3.20;;;;;;;18.95;100.00;98695.41;15281226;19;20027;-75
2022/08/25 01:13:07;;;;;;;6.88;3.90;;;;;;;18.87;100.00;98696.41;15277141;19;20016;-75
2022/08/25 01:18:20;;;;;;;7.72;3.63;;;;;;;18.83;100.00;98694.31;15280310;19;20474;-74
2022/08/25 01:23:28;;;;;;;6.38;3.53;;;;;;;18.78;100.00;98692.22;15278206;19;20019;-79
2022/08/25 01:28:33;;;;;;;5.05;3.20;;;;;;;18.69;100.00;98686.09;15279976;19;20010;-77
2022/08/25 01:33:38;;;;;;;4.63;3.70;;;;;;;18.62;100.00;98688.00;15271297;19;20045;-79
2022/08/25 01:38:45;;;;;;;6.93;4.10;;;;;;;18.57;100.00;98685.03;15275723;19;20349;-79
2022/08/25 01:43:50;;;;;;;6.82;4.00;;;;;;;18.50;100.00;98689.63;15274103;19;20394;-79
2022/08/25 01:48:55;;;;;;;6.38;4.10;;;;;;;18.42;100.00;98688.75;15278712;19;20038;-77
2022/08/25 01:54:02;;;;;;;5.40;4.03;;;;;;;18.40;100.00;98690.03;15271506;19;20042;-77
2022/08/25 01:59:07;;;;;;;6.20;4.38;;;;;;;18.35;100.00;98690.66;15279907;19;20015;-76
2022/08/25 02:04:11;;;;;;;7.20;4.40;;;;;;;18.32;100.00;98693.78;15272040;19;20670;-75
2022/08/25 02:09:21;;;;;;;7.32;4.72;;;;;;;18.29;100.00;98683.25;15269463;19;20364;-76
2022/08/25 02:14:27;;;;;;;7.75;4.78;;;;;;;18.26;100.00;98683.69;15275976;19;20015;-75
2022/08/25 02:19:32;;;;;;;6.43;4.60;;;;;;;18.20;100.00;98674.44;15276404;19;20717;-75
2022/08/25 02:24:39;;;;;;;8.32;5.00;;;;;;;18.12;100.00;98678.19;15271598;19;20015;-77
2022/08/25 02:29:44;;;;;;;7.45;4.32;;;;;;;18.06;100.00;98673.53;15275258;19;20014;-78
2022/08/25 02:34:49;;;;;;;7.40;4.85;;;;;;;18.00;100.00;98671.63;15275479;19;20011;-78
2022/08/25 02:39:56;;;;;;;6.25;4.70;;;;;;;17.92;100.00;98660.88;15268506;19;20054;-77
2022/08/25 02:45:00;;;;;;;8.50;5.10;;;;;;;17.87;100.00;98664.22;15275461;19;20015;-77
2022/08/25 02:50:05;;;;;;;7.65;5.30;;;;;;;17.79;100.00;98656.19;15274571;19;20038;-77
2022/08/25 02:55:14;;;;;;;8.45;6.18;;;;;;;17.67;100.00;98664.94;14766079;19;10000835;-77
2022/08/25 03:00:20;;;;;;;7.57;5.90;;;;;;;17.66;100.00;98662.44;15274070;19;20018;-77
2022/08/25 03:05:26;;;;;;;7.30;4.80;;;;;;;17.61;100.00;98670.34;15271613;19;20014;-77
2022/08/25 03:10:34;;;;;;;6.70;5.03;;;;;;;17.59;100.00;98661.53;15267521;19;20050;-77
2022/08/25 03:15:41;;;;;;;7.03;4.85;;;;;;;17.47;100.00;98667.56;15272573;19;20014;-78
2022/08/25 03:20:45;;;;;;;7.45;4.78;;;;;;;17.43;100.00;98657.25;15275431;19;20081;-79
2022/08/25 03:31:12;;;;;;;9.40;6.18;;;;;;;17.31;100.00;98659.72;15276410;19;20015;-78
2022/08/25 03:36:16;;;;;;;8.70;6.32;;;;;;;17.27;100.00;98666.59;15272973;19;20011;-75
2022/08/25 03:41:27;;;;;;;9.02;5.90;;;;;;;17.22;100.00;98668.03;15270984;19;20739;-75
2022/08/25 03:46:35;;;;;;;12.80;6.75;;;;;;;17.18;100.00;98672.19;15265697;19;20011;-76
2022/08/25 03:51:45;;;;;;;10.05;6.68;;;;;;;17.08;100.00;98666.25;15279556;19;20007;-77
2022/08/25 03:56:53;;;;;;;8.80;6.63;;;;;;;17.03;100.00;98661.41;15274750;19;20014;-77
2022/08/25 04:01:57;;;;;;;10.65;6.50;;;;;;;17.01;100.00;98665.34;15276708;19;20014;-76
2022/08/25 04:07:03;;;;;;;9.32;7.13;;;;;;;16.99;100.00;98675.59;15272679;19;20087;-74
2022/08/25 04:12:13;;;;;;;10.65;7.20;;;;;;;16.92;100.00;98678.25;15275178;19;20014;-75
2022/08/25 04:17:22;;;;;;;12.38;7.22;;;;;;;16.89;100.00;98684.91;15268772;19;20042;-76
2022/08/25 04:22:27;;;;;;;10.82;8.10;;;;;;;16.88;100.00;98687.81;15278948;19;20479;-75
2022/08/25 04:27:36;;;;;;;9.38;7.82;;;;;;;16.86;100.00;98684.44;15275039;19;20015;-75
2022/08/25 04:32:42;;;;;;;8.57;7.68;;;;;;;16.84;100.00;98695.53;15281899;19;20022;-76
2022/08/25 04:37:47;;;;;;;10.73;8.07;;;;;;;16.83;100.00;98690.28;15287443;19;20046;-75
2022/08/25 04:42:54;;;;;;;9.48;7.45;;;;;;;16.84;100.00;98679.22;15298781;19;20011;-77
2022/08/25 04:48:00;;;;;;;8.98;7.28;;;;;;;16.84;100.00;98687.38;15278473;19;20042;-75
2022/08/25 04:53:04;;;;;;;12.82;9.48;;;;;;;16.86;100.00;98682.59;15294049;19;20018;-75
2022/08/25 04:58:12;;;;;;;9.25;7.60;;;;;;;16.87;100.00;98673.38;15289202;19;20490;-76
2022/08/25 05:03:20;;;;;;;13.48;9.23;;;;;;;16.85;100.00;98667.28;15290662;19;20025;-76
2022/08/25 05:08:24;;;;;;;13.00;8.95;;;;;;;16.83;100.00;98658.47;15288506;19;20007;-74
2022/08/25 05:13:31;;;;;;;10.13;8.20;;;;;;;16.86;100.00;98671.69;15295449;19;20010;-77
2022/08/25 05:18:37;;;;;;;11.95;9.38;;;;;;;16.91;100.00;98691.00;15306440;19;20039;-76
2022/08/25 05:23:42;;;;;;;11.57;9.48;;;;;;;16.97;100.00;98686.69;15350430;19;20006;-76
2022/08/25 05:28:51;;;;;;;14.02;10.43;;;;;;;17.05;100.00;98681.06;15306520;19;20015;-75
2022/08/25 05:33:56;;;;;;;14.82;10.55;;;;;;;17.10;100.00;98694.13;15287403;19;20018;-76
2022/08/25 05:39:01;;;;;;;12.88;10.20;;;;;;;17.16;100.00;98689.78;15284360;19;20010;-77
2022/08/25 05:44:08;;;;;;;9.43;8.13;;;;;;;17.18;100.00;98699.41;15285950;19;20022;-75
2022/08/25 05:49:13;;;;;;;9.63;7.95;;;;;;;17.22;100.00;98700.72;15281820;19;20560;-76
2022/08/25 05:54:18;;;;;;;13.00;7.55;;;;;;;17.28;100.00;98695.50;15278785;19;20010;-79
2022/08/25 05:59:26;;;;;;;11.00;6.90;;;;;;;17.35;100.00;98697.25;15290642;19;20035;-78
2022/08/25 06:04:31;;;;;;;10.15;6.80;;;;;;;17.44;100.00;98706.09;15287451;19;20046;-78
2022/08/25 06:09:36;;;;;;;10.25;7.40;;;;;;;17.54;100.00;98697.56;15294742;19;20002;-79
2022/08/25 06:14:43;;;;;;;10.23;7.60;;;;;;;17.65;100.00;98682.56;15292945;19;20030;-78
2022/08/25 06:19:48;;;;;;;8.52;6.80;;;;;;;17.79;100.00;98678.88;15291112;19;20014;-79
2022/08/25 06:24:53;;;;;;;9.52;7.50;;;;;;;17.99;100.00;98683.59;15285060;19;20043;-77
2022/08/25 06:30:03;;;;;;;12.95;8.23;;;;;;;18.24;100.00;98685.78;15295263;19;20014;-78
2022/08/25 06:35:13;;;;;;;10.30;6.68;;;;;;;18.46;100.00;98673.69;15289885;19;20011;-78
2022/08/25 06:40:18;;;;;;;9.73;7.07;;;;;;;18.70;100.00;98674.13;15297441;19;20011;-77
2022/08/25 06:45:26;;;;;;;8.55;6.10;;;;;;;18.98;100.00;98677.75;15304607;19;20015;-78
2022/08/25 06:50:30;;;;;;;10.82;6.57;;;;;;;19.17;100.00;98678.81;15324578;19;20016;-76
2022/08/25 06:55:36;;;;;;;10.02;6.50;;;;;;;19.31;100.00;98669.56;15329422;19;20010;-77
2022/08/25 07:00:43;;;;;;;11.30;8.55;;;;;;;19.52;100.00;98675.81;15276214;19;20018;-77
2022/08/25 07:05:56;;;;;;;11.45;8.27;;;;;;;19.82;100.00;98680.78;15277670;19;20011;-74
2022/08/25 07:11:07;;;;;;;10.23;8.05;;;;;;;20.14;100.00;98683.66;15284732;19;20080;-75
2022/08/25 07:16:23;;;;;;;13.98;7.47;;;;;;;20.36;100.00;98677.88;15274877;19;20750;-76
2022/08/25 07:21:38;;;;;;;10.88;7.00;;;;;;;20.59;100.00;98664.47;15273969;19;20500;-77
2022/08/25 07:26:45;;;;;;;9.10;6.97;;;;;;;20.82;100.00;98662.22;15267237;19;20002;-75
2022/08/25 07:31:52;;;;;;;8.68;6.43;;;;;;;20.99;100.00;98648.84;15277993;19;20015;-77
2022/08/25 07:36:58;;;;;;;7.63;5.40;;;;;;;21.23;100.00;98642.47;15279149;19;20018;-78
2022/08/25 07:42:03;;;;;;;7.75;5.97;;;;;;;21.43;100.00;98652.41;15284795;19;20051;-77
2022/08/25 07:47:17;;;;;;;8.88;4.53;;;;;;;21.63;100.00;98632.19;15283897;19;20087;-79
2022/08/25 07:52:26;;;;;;;6.30;4.20;;;;;;;21.82;100.00;98617.41;15286203;19;20031;-78
2022/08/25 07:57:32;;;;;;;8.88;4.53;;;;;;;22.02;100.00;98616.34;15257376;19;20009;-78
2022/08/25 08:02:42;;;;;;;7.28;4.85;;;;;;;22.22;100.00;98617.97;15275466;19;20015;-79
2022/08/25 08:07:47;;;;;;;8.05;4.60;;;;;;;22.38;100.00;98614.56;15284159;19;20090;-78
2022/08/25 08:12:51;;;;;;;6.60;4.47;;;;;;;22.54;100.00;98612.25;15298312;19;20503;-75
2022/08/25 08:17:59;;;;;;;6.22;4.30;;;;;;;22.69;100.00;98604.41;15294977;19;20006;-78
2022/08/25 08:23:04;;;;;;;7.18;4.63;;;;;;;22.81;100.00;98592.59;15298566;19;20018;-76
2022/08/25 08:28:09;;;;;;;6.75;4.28;;;;;;;22.96;100.00;98598.47;15294291;19;20496;-79
2022/08/25 08:33:17;;;;;;;6.55;4.40;;;;;;;23.08;100.00;98591.06;15287715;19;20010;-78
2022/08/25 08:38:24;;;;;;;6.45;4.13;;;;;;;23.20;100.00;98595.75;15292594;19;20010;-79
2022/08/25 08:43:31;;;;;;;5.25;4.13;;;;;;;23.33;100.00;98587.25;15297032;19;20020;-78
2022/08/25 08:48:58;;;;;;;8.60;4.00;;;;;;;23.56;100.00;98585.56;15288840;19;20013;-79
2022/08/25 08:54:12;;;;;;;5.30;3.53;;;;;;;23.79;100.00;98584.63;15298868;19;20018;-79
2022/08/25 08:59:24;;;;;;;6.22;3.97;;;;;;;23.89;100.00;98592.28;15297063;19;20074;-79
2022/08/25 09:04:43;;;;;;;6.95;3.70;;;;;;;24.02;100.00;98593.09;15288521;19;20541;-77
2022/08/25 09:09:50;;;;;;;6.35;3.85;;;;;;;24.17;100.00;98576.88;15294979;19;20019;-77
2022/08/25 09:15:08;;;;;;;7.47;3.90;;;;;;;24.35;100.00;98564.81;15295069;19;20018;-77
2022/08/25 09:20:35;;;;;;;8.18;3.58;;;;;;;24.64;100.00;98574.94;15293205;19;20077;-77
2022/08/25 09:25:46;;;;;;;6.35;2.90;;;;;;;25.05;100.00;98565.41;15291382;19;20019;-76
2022/08/25 09:31:01;;;;;;;7.20;2.80;;;;;;;25.34;100.00;98559.78;15296099;19;20625;-79
2022/08/25 09:36:09;;;;;;;6.32;2.55;;;;;;;25.51;100.00;98551.47;15286245;19;20217;-77
2022/08/25 09:41:18;;;;;;;7.28;2.65;;;;;;;25.81;100.00;98550.16;15291802;19;20010;-78
2022/08/25 09:46:27;;;;;;;6.38;2.60;;;;;;;25.97;100.00;98551.19;15291069;19;20031;-78
2022/08/25 09:51:38;;;;;;;5.28;2.80;;;;;;;26.08;100.00;98541.06;15295024;19;20030;-77
2022/08/25 09:56:52;;;;;;;7.13;2.80;;;;;;;26.15;100.00;98544.50;15292257;19;20018;-76
2022/08/25 10:01:59;;;;;;;7.80;2.63;;;;;;;26.37;100.00;98538.09;15295840;19;20018;-77
2022/08/25 10:07:24;;;;;;;5.85;3.17;;;;;;;26.40;100.00;98537.53;15287260;19;20044;-76
2022/08/25 10:12:34;;;;;;;6.25;3.10;;;;;;;26.31;100.00;98530.84;15289617;19;20022;-75
2022/08/25 10:17:39;;;;;;;7.97;3.28;;;;;;;26.26;100.00;98525.28;15291477;19;20490;-78
2022/08/25 10:22:47;;;;;;;5.15;2.85;;;;;;;26.21;100.00;98522.47;15291914;19;20002;-78
2022/08/25 10:28:02;;;;;;;9.97;2.93;;;;;;;26.28;100.00;98515.63;15286166;19;20039;-77
2022/08/25 10:33:17;;;;;;;4.80;2.50;;;;;;;26.27;100.00;98502.91;15290773;19;20003;-77
2022/08/25 10:38:39;;;;;;;8.45;2.65;;;;;;;26.11;100.00;98490.91;15286391;19;20035;-76
2022/08/25 10:43:55;;;;;;;5.25;2.50;;;;;;;26.26;100.00;98494.91;15282904;19;20016;-75
2022/08/25 10:49:06;;;;;;;5.75;2.28;;;;;;;26.51;100.00;98490.69;15284482;19;20094;-77
2022/08/25 10:54:30;;;;;;;7.15;2.40;;;;;;;26.66;100.00;98485.25;15289830;19;20025;-77
2022/08/25 11:00:01;;;;;;;5.93;2.13;;;;;;;26.66;100.00;98476.16;15312531;19;20014;-78
2022/08/25 11:05:11;;;;;;;8.05;2.40;;;;;;;26.81;100.00;98476.28;15354537;19;20015;-79
2022/08/25 11:10:27;;;;;;;5.47;2.17;;;;;;;26.73;100.00;98469.28;15310859;19;20027;-78
2022/08/25 11:15:40;;;;;;;4.32;1.80;;;;;;;27.03;100.00;98470.59;15333938;19;20006;-76
2022/08/25 11:21:11;;;;;;;4.68;2.00;;;;;;;27.22;100.00;98456.31;15282108;19;20382;-76
2022/08/25 11:26:28;;;;;;;4.43;1.80;;;;;;;27.39;100.00;98442.28;15278002;19;20136;-77
2022/08/25 11:31:41;;;;;;;6.70;2.00;;;;;;;27.33;100.00;98441.44;15280278;19;20019;-77
2022/08/25 11:36:52;;;;;;;6.45;1.92;;;;;;;27.42;100.00;98440.88;15275624;19;20022;-77
2022/08/25 11:42:14;;;;;;;3.85;1.90;;;;;;;27.44;100.00;98441.47;15279791;19;20018;-78
2022/08/25 11:47:38;;;;;;;5.78;2.08;;;;;;;27.66;100.00;98441.25;15267461;19;20038;-78
2022/08/25 11:52:48;;;;;;;4.07;1.80;;;;;;;27.62;100.00;98424.38;15286869;19;20014;-78
2022/08/25 11:58:19;;;;;;;2.90;1.50;;;;;;;27.67;100.00;98426.31;15294846;19;20038;-78
2022/08/25 12:04:02;;;;;;;4.00;1.75;;;;;;;27.81;100.00;98415.56;15293942;19;20413;-78
2022/08/25 12:09:22;;;;;;;3.03;1.52;;;;;;;28.03;100.00;98412.50;15271872;19;20363;-78
2022/08/25 12:14:48;;;;;;;4.90;1.70;;;;;;;28.01;100.00;98411.94;15276922;19;20014;-77
2022/08/25 12:20:00;;;;;;;3.83;1.50;;;;;;;28.18;100.00;98408.94;15269375;19;20010;-77
2022/08/25 12:25:10;;;;;;;3.35;1.50;;;;;;;28.29;100.00;98388.44;15273378;19;20687;-78
2022/08/25 12:30:25;;;;;;;2.75;1.40;;;;;;;28.67;99.81;98392.78;15273704;19;20013;-78
2022/08/25 12:35:33;;;;;;;5.28;1.70;;;;;;;29.03;100.00;98376.91;15272525;19;20267;-77
2022/08/25 12:40:55;;;;;;;5.38;1.50;;;;;;;29.41;97.21;98375.59;15276897;19;20043;-77
2022/08/25 12:46:14;;;;;;;;;;;;;;;29.54;81.03;98382.50;15272868;19;20127;-77
2022/08/25 12:51:22;;;;;;;5.10;1.40;;;;;;;29.85;88.30;98379.47;15267911;19;19935;-77
2022/08/25 12:56:32;;;;;;;4.20;1.52;;;;;;;30.24;84.75;98376.66;15283716;19;20030;-78
2022/08/25 13:02:00;;;;;;;4.22;1.65;;;;;;;30.43;80.25;98371.22;15288938;19;20024;-77
2022/08/25 13:07:24;;;;;;;5.78;1.58;;;;;;;30.51;77.28;98372.53;15284430;19;20025;-78
2022/08/25 13:12:35;;;;;;;3.35;1.30;;;;;;;30.79;79.26;98366.41;15291124;19;20013;-78
2022/08/25 13:17:40;;;;;;;4.55;1.67;;;;;;;30.89;77.75;98352.38;15287040;19;20029;-79
2022/08/25 13:22:52;;;;;;;5.03;1.92;;;;;;;30.72;74.80;98355.63;15284300;19;20022;-78
2022/08/25 13:28:05;;;;;;;4.22;1.50;;;;;;;30.74;77.06;98354.22;15280904;19;20025;-79
2022/08/25 13:33:19;;;;;;;5.63;1.80;;;;;;;30.91;77.63;98341.78;15295706;19;20023;-79
2022/08/25 13:38:28;;;;;;;7.30;1.75;;;;;;;31.27;72.90;98343.28;15288087;19;20422;-79
2022/08/25 13:43:34;;;;;;;4.55;1.60;;;;;;;31.25;72.44;98332.44;15292900;19;20022;-78
2022/08/25 13:48:41;;;;;;;7.18;1.80;;;;;;;31.22;69.09;98324.72;15284473;19;20436;-77
2022/08/25 13:53:59;;;;;;;6.57;1.92;;;;;;;31.39;68.09;98315.84;15287474;19;20057;-77
2022/08/25 13:59:07;;;;;;;5.75;2.00;;;;;;;31.13;72.31;98316.19;15271009;19;20026;-77
2022/08/25 14:04:30;;;;;;;7.93;2.10;;;;;;;31.03;70.28;98316.31;15277422;19;20018;-77
2022/08/25 14:09:42;;;;;;;8.15;2.20;;;;;;;31.24;67.21;98307.72;15276960;19;20076;-76
2022/08/25 14:15:00;;;;;;;8.27;2.17;;;;;;;31.58;65.77;98293.50;15282464;19;20034;-76
2022/08/25 14:20:05;;;;;;;8.90;2.20;;;;;;;31.95;65.03;98308.53;15286083;19;20014;-79
2022/08/25 14:25:13;;;;;;;9.77;2.22;;;;;;;32.02;64.20;98296.16;15280198;19;20043;-79
2022/08/25 14:30:18;;;;;;;12.25;2.20;;;;;;;32.15;64.01;98291.75;15272378;19;20014;-77
2022/08/25 14:35:33;;;;;;;11.32;2.28;;;;;;;32.19;63.49;98282.44;15281416;19;20278;-77
2022/08/25 14:40:40;;;;;;;8.70;2.10;;;;;;;32.29;62.51;98273.09;15280233;19;20010;-77
2022/08/25 14:45:48;;;;;;;9.15;2.20;;;;;;;32.44;60.48;98271.97;15292252;19;20506;-79
2022/08/25 14:50:53;;;;;;;7.53;2.25;;;;;;;32.37;59.79;98252.88;15291722;19;20013;-79
2022/08/25 14:56:00;;;;;;;8.27;2.30;;;;;;;32.44;58.83;98252.44;15294778;19;20483;-80
2022/08/25 15:01:16;;;;;;;11.82;2.50;;;;;;;32.55;58.88;98251.09;15276564;19;20733;-77
2022/08/25 15:06:21;;;;;;;9.52;2.42;;;;;;;32.31;57.73;98247.69;15282722;19;20519;-76
2022/08/25 15:11:31;;;;;;;11.30;2.42;;;;;;;31.94;60.90;98241.97;15287966;19;20035;-77
2022/08/25 15:16:49;;;;;;;10.63;2.90;;;;;;;31.83;61.40;98237.72;15302264;19;20523;-78
2022/08/25 15:21:55;;;;;;;10.07;2.75;;;;;;;31.70;63.07;98236.53;15345995;19;20019;-77
2022/08/25 15:27:07;;;;;;;12.15;2.42;;;;;;;31.64;63.02;98236.63;15277536;19;20092;-76
2022/08/25 15:32:14;;;;;;;14.27;2.60;;;;;;;31.69;63.17;98227.38;15266346;19;20048;-76
2022/08/25 15:37:21;;;;;;;18.02;3.30;;;;;;;31.53;65.19;98224.00;15274319;19;20055;-77
2022/08/25 15:42:28;;;;;;;11.15;2.97;;;;;;;31.52;65.48;98227.91;15276640;19;20047;-78
2022/08/25 15:47:33;;;;;;;12.77;2.58;;;;;;;31.61;63.98;98222.50;15272766;19;20011;-77
2022/08/25 15:52:39;;;;;;;9.82;2.83;;;;;;;31.77;62.86;98228.63;15275003;19;20081;-77
2022/08/25 15:57:54;;;;;;;13.50;3.33;;;;;;;31.86;62.21;98232.38;15271729;19;20126;-77
2022/08/25 16:02:59;;;;;;;11.60;2.78;;;;;;;31.98;60.98;98226.31;15272361;19;20032;-77
2022/08/25 16:08:05;;;;;;;13.75;2.88;;;;;;;31.91;60.34;98223.91;15268052;19;20011;-76
2022/08/25 16:13:25;;;;;;;11.73;2.80;;;;;;;32.10;59.90;98220.22;15274390;19;20471;-78
2022/08/25 16:18:30;;;;;;;12.95;2.65;;;;;;;31.99;60.63;98214.00;15271877;19;20396;-77
2022/08/25 16:23:35;;;;;;;13.30;2.75;;;;;;;31.74;60.40;98212.53;15275399;19;20394;-79
2022/08/25 16:28:44;;;;;;;11.68;2.65;;;;;;;31.63;62.03;98217.44;15274552;19;20018;-78
2022/08/25 16:33:48;;;;;;;13.40;3.00;;;;;;;31.26;63.19;98220.00;15298888;19;20011;-78
2022/08/25 16:39:00;;;;;;;15.23;3.03;;;;;;;30.99;65.22;98210.34;15294214;19;20331;-75
2022/08/25 16:44:08;;;;;;;14.15;3.13;;;;;;;30.81;67.38;98202.84;15300485;19;20018;-78
2022/08/25 16:49:16;;;;;;;15.95;3.53;;;;;;;30.58;70.00;98205.41;15299663;19;20018;-77
2022/08/25 16:59:41;;;;;;;13.43;2.85;;;;;;;29.95;75.65;98204.44;15305562;19;20022;-76
2022/08/25 17:04:52;;;;;;;19.27;3.10;;;;;;;29.61;79.84;98208.09;15335745;19;20062;-78
2022/08/25 17:09:59;;;;;;;12.82;3.22;;;;;;;29.34;84.18;98192.81;15322648;19;20013;-76
2022/08/25 17:15:07;;;;;;;13.48;3.17;;;;;;;29.12;87.89;98204.34;15320945;19;20039;-76
2022/08/25 17:20:12;;;;;;;14.20;2.80;;;;;;;28.89;91.44;98198.38;15329156;19;20067;-75
2022/08/25 17:25:18;;;;;;;17.90;3.40;;;;;;;28.57;95.76;98191.34;15290038;19;20011;-75
2022/08/25 17:30:25;;;;;;;14.23;2.88;;;;;;;28.37;99.42;98195.06;15286305;19;20054;-78
2022/08/25 17:35:31;;;;;;;10.82;3.08;;;;;;;28.12;100.00;98191.28;15284929;19;20480;-76
2022/08/25 17:40:36;;;;;;;14.25;3.05;;;;;;;27.90;100.00;98189.66;15274760;19;20014;-76
2022/08/25 17:45:44;;;;;;;10.68;2.80;;;;;;;27.73;100.00;98189.13;15284675;19;20468;-76
2022/08/25 17:50:52;;;;;;;16.08;3.00;;;;;;;27.51;100.00;98193.03;15280994;19;20078;-76
2022/08/25 17:56:01;;;;;;;16.42;3.25;;;;;;;27.37;100.00;98195.50;15282652;19;20014;-76
2022/08/25 18:01:15;;;;;;;10.57;3.10;;;;;;;27.25;100.00;98198.53;15286442;19;20038;-76
2022/08/25 18:06:22;;;;;;;14.93;3.28;;;;;;;27.02;100.00;98197.97;15281390;19;20025;-77
2022/08/25 18:11:27;;;;;;;12.55;3.28;;;;;;;26.83;100.00;98197.66;15277161;19;20118;-76
2022/08/25 18:16:36;;;;;;;14.13;3.10;;;;;;;26.59;100.00;98202.84;15275401;19;20687;-76
2022/08/25 18:21:41;;;;;;;13.45;3.00;;;;;;;26.37;100.00;98195.59;15281672;19;20038;-77
2022/08/25 18:26:47;;;;;;;17.73;3.30;;;;;;;26.21;100.00;98196.63;15280903;19;20011;-76
2022/08/25 18:31:54;;;;;;;14.75;3.20;;;;;;;26.02;100.00;98202.59;15277362;19;20039;-77
2022/08/25 18:40:21;;;;;;;14.38;3.20;;;;;;;25.87;100.00;98208.03;15279990;19;20019;-77
2022/08/25 18:42:28;;;;;;;10.15;3.00;;;;;;;25.67;100.00;98215.91;15282909;19;20385;-77
2022/08/25 18:47:35;;;;;;;14.82;3.00;;;;;;;25.54;100.00;98221.88;15271726;19;20014;-77
2022/08/25 18:52:40;;;;;;;14.68;3.40;;;;;;;25.42;100.00;98219.31;15280113;19;20014;-76
2022/08/25 18:57:45;;;;;;;13.15;2.90;;;;;;;25.34;100.00;98228.88;15274412;19;20341;-78
2022/08/25 19:02:54;;;;;;;14.70;3.20;;;;;;;25.28;100.00;98229.09;15277865;19;20006;-76
2022/08/25 19:08:01;;;;;;;17.23;3.47;;;;;;;25.18;100.00;98230.66;15253115;19;20029;-76
2022/08/25 19:13:07;;;;;;;12.40;2.90;;;;;;;25.10;100.00;98228.38;15274265;19;20014;-76
2022/08/25 19:18:16;;;;;;;14.45;3.45;;;;;;;25.02;100.00;98226.94;15268066;19;20007;-76
2022/08/25 19:23:21;;;;;;;16.08;3.17;;;;;;;24.97;100.00;98218.59;15278819;19;20344;-76
2022/08/25 19:28:27;;;;;;;16.83;3.30;;;;;;;24.88;100.00;98215.47;15275299;19;20014;-77
2022/08/25 19:33:34;;;;;;;13.30;3.15;;;;;;;24.81;100.00;98219.56;15284607;19;20507;-75
2022/08/25 19:38:48;;;;;;;19.00;3.10;;;;;;;24.70;100.00;98207.59;15318305;19;20010;-77
2022/08/25 19:43:55;;;;;;;16.38;3.67;;;;;;;24.66;100.00;98211.91;15327835;19;20008;-77
2022/08/25 19:49:04;;;;;;;15.65;3.15;;;;;;;24.62;100.00;98217.09;15260134;19;20430;-75
2022/08/25 19:54:13;;;;;;;14.38;3.20;;;;;;;24.54;100.00;98223.91;15272394;19;20038;-75
2022/08/25 19:59:19;;;;;;;11.80;3.00;;;;;;;24.50;100.00;98219.16;15268501;19;20043;-76
2022/08/25 20:04:28;;;;;;;12.48;3.08;;;;;;;24.44;100.00;98224.63;15273511;19;20078;-75
2022/08/25 20:09:33;;;;;;;17.83;3.58;;;;;;;24.37;100.00;98226.72;15280611;19;20007;-74
2022/08/25 20:14:44;;;;;;;14.77;3.33;;;;;;;24.30;100.00;98224.16;15281959;19;20038;-75
2022/08/25 20:19:52;;;;;;;17.00;3.65;;;;;;;24.26;100.00;98223.03;15282215;19;20022;-75
2022/08/25 20:25:00;;;;;;;12.10;3.30;;;;;;;24.20;100.00;98231.47;15272972;19;20363;-75
2022/08/25 20:30:09;;;;;;;14.98;3.55;;;;;;;24.14;100.00;98234.16;15279911;19;20093;-75
2022/08/25 20:35:18;;;;;;;13.23;3.17;;;;;;;24.11;100.00;98222.81;15283544;19;20710;-75
2022/08/25 20:40:24;;;;;;;12.60;3.22;;;;;;;24.02;100.00;98240.88;15282159;19;20026;-74
2022/08/25 20:45:29;;;;;;;13.88;3.50;;;;;;;23.90;100.00;98239.03;15280546;19;20017;-77
2022/08/25 20:50:39;;;;;;;11.73;3.05;;;;;;;23.83;100.00;98241.09;15281646;19;20377;-77
2022/08/25 20:55:44;;;;;;;14.35;3.47;;;;;;;23.75;100.00;98236.03;15271841;19;20014;-75
2022/08/25 21:00:50;;;;;;;13.75;3.38;;;;;;;23.69;100.00;98237.88;15283685;19;20011;-74
2022/08/25 21:05:59;;;;;;;14.55;3.60;;;;;;;23.64;100.00;98235.03;15282499;19;20033;-74
2022/08/25 21:11:04;;;;;;;13.82;3.65;;;;;;;23.57;100.00;98240.75;15281152;19;20524;-76
2022/08/25 21:16:09;;;;;;;12.75;3.45;;;;;;;23.50;100.00;98243.66;15280832;19;20025;-75
2022/08/25 21:21:17;;;;;;;14.70;3.85;;;;;;;23.46;100.00;98233.41;15283476;19;20038;-74
2022/08/25 21:26:24;;;;;;;13.75;3.45;;;;;;;23.43;100.00;98239.41;15271478;19;20011;-75
2022/08/25 21:31:30;;;;;;;15.68;3.53;;;;;;;23.39;100.00;98234.41;15280663;19;20475;-76
2022/08/25 21:36:38;;;;;;;10.95;3.85;;;;;;;23.35;100.00;98237.91;15282480;19;20014;-76
2022/08/25 21:41:44;;;;;;;11.20;3.63;;;;;;;23.30;100.00;98233.16;15286847;19;20038;-77
2022/08/25 21:46:49;;;;;;;14.35;3.70;;;;;;;23.25;100.00;98238.53;15279718;19;20013;-76
2022/08/25 21:52:00;;;;;;;14.13;3.92;;;;;;;23.20;100.00;98241.22;15276742;19;20626;-76
2022/08/25 21:57:08;;;;;;;13.82;3.45;;;;;;;23.15;100.00;98243.84;15266695;19;20912;-76
2022/08/25 22:02:14;;;;;;;12.45;3.25;;;;;;;23.09;100.00;98235.53;15276332;19;20525;-76
2022/08/25 22:07:29;;;;;;;13.52;3.90;;;;;;;23.05;100.00;98239.84;15277123;19;20015;-77
2022/08/25 22:12:43;;;;;;;18.30;4.40;;;;;;;22.99;100.00;98240.81;15275476;19;20472;-76
2022/08/25 22:17:48;;;;;;;14.23;4.03;;;;;;;22.97;100.00;98243.00;15276426;19;20014;-76
2022/08/25 22:22:55;;;;;;;13.98;3.75;;;;;;;22.89;100.00;98243.38;15278396;19;20665;-76
2022/08/25 22:28:03;;;;;;;15.45;3.50;;;;;;;22.85;100.00;98239.47;15271924;19;20006;-76
2022/08/25 22:33:08;;;;;;;13.23;3.70;;;;;;;22.81;100.00;98238.28;15264007;19;20010;-76
2022/08/25 22:38:16;;;;;;;17.75;4.00;;;;;;;22.71;100.00;98234.28;15275517;19;20010;-76
2022/08/25 22:43:20;;;;;;;16.05;4.35;;;;;;;22.63;100.00;98237.41;15279349;19;20051;-76
2022/08/25 22:48:25;;;;;;;13.27;3.72;;;;;;;22.62;100.00;98235.75;15275408;19;20011;-76
2022/08/25 22:53:32;;;;;;;17.20;4.00;;;;;;;22.55;100.00;98235.03;15274043;19;20003;-75
2022/08/25 22:58:38;;;;;;;14.90;3.60;;;;;;;22.52;100.00;98221.81;15276990;19;20248;-76
2022/08/25 23:03:43;;;;;;;19.30;4.35;;;;;;;22.51;100.00;98217.41;15279372;19;20347;-77
2022/08/25 23:08:55;;;;;;;11.70;3.92;;;;;;;22.50;100.00;98215.72;15281421;19;20024;-76
2022/08/25 23:14:04;;;;;;;13.48;3.92;;;;;;;22.46;100.00;98207.97;15278080;19;20348;-76
2022/08/25 23:19:11;;;;;;;12.88;3.63;;;;;;;22.46;100.00;98210.72;15291389;19;20022;-74
2022/08/25 23:24:30;;;;;;;16.17;4.40;;;;;;;22.44;100.00;98212.88;15349584;19;20023;-75
2022/08/25 23:29:38;;;;;;;14.18;3.95;;;;;;;22.39;100.00;98201.78;15306281;19;20059;-76
2022/08/25 23:34:45;;;;;;;15.50;4.07;;;;;;;22.32;100.00;98198.31;15270289;19;20050;-76
2022/08/25 23:39:53;;;;;;;13.43;4.05;;;;;;;22.24;100.00;98201.47;15278051;19;20017;-76
2022/08/25 23:45:04;;;;;;;12.52;4.22;;;;;;;22.19;100.00;98201.34;15284772;19;20039;-75